createdAt,value
2022-10-04T00:01:48.325Z,17.80
2022-10-04T00:04:17.376Z,17.80
2022-10-04T00:06:44.958Z,17.90
2022-10-04T00:09:14.179Z,17.80
2022-10-04T00:11:45.544Z,17.90
2022-10-04T00:14:16.319Z,18.00
2022-10-04T00:16:44.019Z,17.90
2022-10-04T00:19:24.875Z,17.90
2022-10-04T00:22:12.510Z,17.90
2022-10-04T00:24:59.322Z,17.90
2022-10-04T00:27:28.054Z,17.90
2022-10-04T00:30:14.966Z,17.90
2022-10-04T00:32:59.280Z,17.90
2022-10-04T00:35:44.888Z,17.70
2022-10-04T00:38:14.331Z,17.70
2022-10-04T00:40:46.399Z,17.70
2022-10-04T00:43:17.107Z,17.80
2022-10-04T00:45:46.192Z,17.80
2022-10-04T00:48:31.454Z,17.80
2022-10-04T00:51:01.950Z,17.80
2022-10-04T00:53:38.901Z,17.90
2022-10-04T00:56:08.141Z,18.00
2022-10-04T00:58:40.923Z,18.20
2022-10-04T01:01:08.978Z,18.00
2022-10-04T01:03:38.285Z,18.00
2022-10-04T01:06:06.326Z,17.80
2022-10-04T01:08:35.210Z,17.90
2022-10-04T01:11:03.963Z,18.00
2022-10-04T01:13:35.153Z,17.90
2022-10-04T01:16:04.493Z,18.00
2022-10-04T01:18:32.327Z,18.00
2022-10-04T01:21:00.293Z,17.90
2022-10-04T01:23:35.964Z,17.90
2022-10-04T01:26:03.800Z,18.00
2022-10-04T01:28:30.928Z,17.90
2022-10-04T01:30:58.046Z,17.90
2022-10-04T01:33:25.239Z,17.80
2022-10-04T01:35:52.111Z,17.90
2022-10-04T01:38:18.938Z,17.80
2022-10-04T01:40:51.130Z,17.70
2022-10-04T01:43:25.376Z,17.70
2022-10-04T01:45:55.858Z,17.70
2022-10-04T01:48:24.539Z,17.50
2022-10-04T01:50:55.645Z,17.50
2022-10-04T01:53:24.327Z,17.30
2022-10-04T01:55:54.405Z,17.30
2022-10-04T01:58:25.229Z,17.40
2022-10-04T02:00:55.376Z,17.30
2022-10-04T02:03:25.383Z,17.20
2022-10-04T02:05:54.239Z,17.30
2022-10-04T02:08:24.827Z,17.20
2022-10-04T02:10:54.933Z,17.20
2022-10-04T02:13:22.548Z,17.20
2022-10-04T02:15:49.904Z,17.20
2022-10-04T02:18:18.148Z,17.10
2022-10-04T02:20:46.007Z,17.00
2022-10-04T02:23:13.127Z,17.10
2022-10-04T02:25:39.928Z,16.90
2022-10-04T02:28:11.593Z,16.90
2022-10-04T02:30:39.470Z,16.80
2022-10-04T02:33:06.488Z,16.80
2022-10-04T02:35:35.739Z,16.50
2022-10-04T02:38:09.105Z,16.50
2022-10-04T02:40:40.698Z,16.40
2022-10-04T02:43:12.063Z,16.30
2022-10-04T02:45:43.099Z,16.30
2022-10-04T02:48:19.248Z,16.10
2022-10-04T02:50:49.111Z,16.20
2022-10-04T02:53:19.495Z,16.20
2022-10-04T02:55:47.559Z,16.10
2022-10-04T02:58:18.335Z,16.10
2022-10-04T03:00:46.688Z,16.30
2022-10-04T03:03:19.736Z,16.10
2022-10-04T03:05:52.911Z,16.00
2022-10-04T03:08:20.063Z,16.00
2022-10-04T03:10:46.875Z,15.90
2022-10-04T03:13:14.043Z,16.00
2022-10-04T03:15:42.907Z,16.00
2022-10-04T03:18:10.008Z,15.90
2022-10-04T03:20:37.438Z,15.90
2022-10-04T03:23:04.495Z,15.80
2022-10-04T03:25:38.008Z,15.80
2022-10-04T03:28:05.166Z,15.80
2022-10-04T03:30:32.307Z,15.90
2022-10-04T03:33:00.671Z,15.80
2022-10-04T03:35:28.632Z,15.70
2022-10-04T03:37:56.907Z,15.70
2022-10-04T03:40:27.371Z,15.80
2022-10-04T03:42:54.963Z,15.60
2022-10-04T03:45:22.426Z,15.50
2022-10-04T03:47:50.520Z,15.70
2022-10-04T03:50:21.332Z,15.60
2022-10-04T03:52:50.711Z,15.70
2022-10-04T03:55:18.435Z,15.60
2022-10-04T03:57:45.369Z,15.70
2022-10-04T04:00:14.872Z,15.60
2022-10-04T04:02:46.056Z,15.50
2022-10-04T04:05:16.471Z,15.40
2022-10-04T04:07:45.823Z,15.30
2022-10-04T04:10:17.601Z,15.40
2022-10-04T04:12:47.983Z,15.40
2022-10-04T04:15:15.876Z,15.30
2022-10-04T04:17:44.118Z,15.20
2022-10-04T04:20:22.379Z,15.20
2022-10-04T04:22:59.342Z,15.10
2022-10-04T04:25:27.159Z,15.20
2022-10-04T04:27:56.372Z,15.20
2022-10-04T04:30:23.247Z,15.30
2022-10-04T04:32:51.248Z,15.20
2022-10-04T04:35:22.114Z,15.10
2022-10-04T04:38:04.078Z,15.00
2022-10-04T04:40:30.991Z,14.90
2022-10-04T04:42:59.004Z,15.00
2022-10-04T04:45:29.445Z,14.90
2022-10-04T04:47:57.310Z,15.10
2022-10-04T04:50:25.127Z,14.90
2022-10-04T04:52:59.008Z,14.90
2022-10-04T04:55:28.246Z,14.70
2022-10-04T04:57:56.416Z,14.70
2022-10-04T05:00:27.656Z,14.70
2022-10-04T05:02:58.603Z,14.70
2022-10-04T05:05:27.140Z,14.70
2022-10-04T05:08:08.629Z,14.80
2022-10-04T05:10:37.845Z,14.70
2022-10-04T05:13:05.205Z,14.60
2022-10-04T05:15:33.525Z,14.70
2022-10-04T05:18:00.939Z,14.80
2022-10-04T05:20:28.644Z,14.70
2022-10-04T05:22:55.971Z,14.60
2022-10-04T05:25:26.914Z,14.60
2022-10-04T05:27:56.346Z,14.60
2022-10-04T05:30:33.252Z,14.60
2022-10-04T05:33:01.160Z,14.60
2022-10-04T05:35:29.805Z,14.60
2022-10-04T05:38:02.620Z,14.70
2022-10-04T05:40:33.660Z,14.70
2022-10-04T05:43:03.181Z,14.60
2022-10-04T05:45:31.641Z,14.50
2022-10-04T05:48:01.601Z,14.30
2022-10-04T05:50:31.567Z,14.40
2022-10-04T05:53:21.141Z,14.50
2022-10-04T05:55:58.226Z,14.60
2022-10-04T05:58:47.333Z,14.60
2022-10-04T06:01:36.518Z,14.70
2022-10-04T06:04:31.216Z,14.60
2022-10-04T06:07:00.661Z,14.60
2022-10-04T06:09:38.454Z,14.70
2022-10-04T06:12:08.261Z,14.60
2022-10-04T06:14:51.045Z,14.60
2022-10-04T06:17:24.471Z,14.80
2022-10-04T06:20:08.092Z,14.90
2022-10-04T06:22:43.140Z,15.00
2022-10-04T06:25:15.646Z,14.90
2022-10-04T06:27:45.283Z,14.70
2022-10-04T06:30:16.416Z,14.70
2022-10-04T06:32:58.004Z,14.80
2022-10-04T06:36:03.475Z,15.00
2022-10-04T06:38:37.915Z,15.20
2022-10-04T06:41:12.168Z,15.20
2022-10-04T06:43:57.850Z,15.30
2022-10-04T06:46:32.621Z,15.50
2022-10-04T06:49:14.327Z,15.30
2022-10-04T06:51:49.890Z,15.40
2022-10-04T06:54:24.910Z,15.50
2022-10-04T06:56:59.313Z,15.70
2022-10-04T06:59:36.399Z,15.80
2022-10-04T07:02:06.787Z,15.80
2022-10-04T07:05:06.502Z,16.10
2022-10-04T07:07:35.592Z,16.10
2022-10-04T07:10:09.258Z,16.10
2022-10-04T07:12:38.770Z,16.40
2022-10-04T07:15:10.317Z,16.80
2022-10-04T07:17:40.412Z,17.10
2022-10-04T07:20:18.212Z,17.30
2022-10-04T07:22:51.513Z,17.40
2022-10-04T07:25:22.760Z,17.50
2022-10-04T07:28:15.314Z,17.70
2022-10-04T07:30:48.524Z,17.80
2022-10-04T07:33:21.027Z,17.60
2022-10-04T07:35:51.905Z,17.50
2022-10-04T07:38:25.205Z,17.60
2022-10-04T07:41:00.761Z,17.60
2022-10-04T07:43:29.908Z,17.70
2022-10-04T07:46:03.045Z,17.80
2022-10-04T07:48:31.248Z,18.10
2022-10-04T07:51:02.075Z,18.30
2022-10-04T07:53:31.690Z,18.70
2022-10-04T07:56:02.681Z,19.00
2022-10-04T07:58:35.824Z,19.00
2022-10-04T08:01:04.801Z,19.50
2022-10-04T08:03:50.662Z,20.20
2022-10-04T08:06:19.832Z,20.80
2022-10-04T08:08:56.662Z,21.30
2022-10-04T08:11:27.554Z,21.30
2022-10-04T08:13:57.878Z,21.40
2022-10-04T08:16:35.063Z,21.70
2022-10-04T08:19:23.425Z,22.00
2022-10-04T08:22:01.125Z,22.60
2022-10-04T08:24:35.548Z,22.90
2022-10-04T08:27:16.724Z,23.30
2022-10-04T08:29:58.192Z,23.10
2022-10-04T08:32:32.205Z,23.20
2022-10-04T08:35:23.270Z,23.10
2022-10-04T08:38:24.130Z,22.80
2022-10-04T08:41:33.079Z,22.50
2022-10-04T08:44:42.944Z,22.90
2022-10-04T08:47:22.248Z,23.40
2022-10-04T08:49:55.160Z,23.90
2022-10-04T08:53:05.373Z,24.90
2022-10-04T08:55:45.015Z,24.80
2022-10-04T08:58:36.902Z,25.50
2022-10-04T09:01:17.090Z,25.40
2022-10-04T09:04:01.708Z,25.60
2022-10-04T09:06:43.302Z,25.70
2022-10-04T09:09:44.624Z,25.30
2022-10-04T09:12:20.077Z,25.40
2022-10-04T09:14:57.041Z,25.40
2022-10-04T09:17:30.370Z,24.80
2022-10-04T09:20:33.465Z,25.20
2022-10-04T09:23:00.791Z,25.50
2022-10-04T09:25:56.432Z,25.40
2022-10-04T09:29:11.454Z,24.90
2022-10-04T09:31:49.743Z,24.90
2022-10-04T09:34:31.615Z,25.50
2022-10-04T09:37:17.255Z,26.20
2022-10-04T09:39:59.017Z,26.00
2022-10-04T09:42:56.801Z,26.60
2022-10-04T09:45:41.529Z,27.10
2022-10-04T09:48:29.769Z,27.00
2022-10-04T09:51:25.282Z,27.00
2022-10-04T09:54:10.809Z,28.10
2022-10-04T09:56:52.934Z,28.70
2022-10-04T09:59:36.616Z,28.40
2022-10-04T10:02:38.925Z,28.20
2022-10-04T10:05:22.122Z,27.80
2022-10-04T10:07:53.262Z,27.60
2022-10-04T10:10:43.127Z,28.30
2022-10-04T10:13:42.574Z,28.10
2022-10-04T10:16:29.780Z,27.30
2022-10-04T10:19:13.002Z,27.10
2022-10-04T10:21:45.999Z,26.70
2022-10-04T10:24:24.822Z,26.70
2022-10-04T10:27:02.349Z,26.60
2022-10-04T10:29:47.072Z,25.80
2022-10-04T10:32:27.231Z,25.70
2022-10-04T10:35:11.976Z,25.90
2022-10-04T10:37:45.349Z,25.60
2022-10-04T10:40:31.573Z,26.20
2022-10-04T10:43:09.379Z,25.40
2022-10-04T10:45:45.592Z,25.80
2022-10-04T10:48:14.844Z,26.80
2022-10-04T10:51:00.076Z,26.90
2022-10-04T10:53:45.181Z,27.30
2022-10-04T10:56:30.072Z,27.40
2022-10-04T10:59:31.067Z,26.80
2022-10-04T11:02:15.573Z,26.50
2022-10-04T11:04:54.684Z,27.60
2022-10-04T11:07:32.534Z,28.10
2022-10-04T11:10:17.219Z,27.90
2022-10-04T11:13:04.836Z,28.30
2022-10-04T11:15:50.279Z,28.30
2022-10-04T11:18:33.747Z,28.30
2022-10-04T11:21:14.535Z,29.90
2022-10-04T11:24:00.368Z,29.40
2022-10-04T11:26:40.161Z,30.10
2022-10-04T11:29:12.331Z,30.40
2022-10-04T11:31:53.593Z,30.10
2022-10-04T11:34:50.917Z,29.60
2022-10-04T11:37:21.774Z,29.70
2022-10-04T11:40:09.129Z,30.10
2022-10-04T11:42:48.404Z,29.60
2022-10-04T11:45:27.268Z,28.60
2022-10-04T11:47:59.091Z,28.10
2022-10-04T11:50:38.939Z,27.00
2022-10-04T11:53:21.933Z,26.70
2022-10-04T11:55:58.432Z,26.70
2022-10-04T11:58:29.814Z,27.10
2022-10-04T12:01:14.156Z,27.10
2022-10-04T12:03:58.729Z,26.60
2022-10-04T12:06:35.016Z,26.40
2022-10-04T12:09:06.088Z,25.80
2022-10-04T12:12:13.115Z,25.40
2022-10-04T12:14:50.931Z,25.30
2022-10-04T12:17:39.635Z,25.10
2022-10-04T12:20:28.726Z,25.20
2022-10-04T12:23:05.633Z,25.50
2022-10-04T12:25:47.796Z,26.40
2022-10-04T12:28:32.534Z,27.30
2022-10-04T12:31:17.202Z,27.30
2022-10-04T12:33:48.340Z,26.90
2022-10-04T12:36:24.636Z,27.50
2022-10-04T12:38:56.607Z,27.80
2022-10-04T12:41:27.948Z,27.60
2022-10-04T12:44:00.676Z,27.40
2022-10-04T12:46:36.529Z,27.60
2022-10-04T12:49:10.944Z,28.90
2022-10-04T12:51:45.451Z,29.00
2022-10-04T12:54:20.968Z,29.30
2022-10-04T12:56:51.102Z,29.90
2022-10-04T12:59:35.573Z,29.20
2022-10-04T13:02:07.055Z,28.30
2022-10-04T13:04:39.002Z,27.50
2022-10-04T13:07:23.695Z,26.20
2022-10-04T13:10:22.470Z,25.60
2022-10-04T13:13:05.566Z,24.60
2022-10-04T13:18:26.416Z,23.70
2022-10-04T13:20:57.043Z,23.40
2022-10-04T13:23:31.751Z,23.30
2022-10-04T13:26:16.797Z,22.90
2022-10-04T13:28:48.513Z,23.00
2022-10-04T13:31:23.916Z,23.10
2022-10-04T13:33:56.549Z,23.20
2022-10-04T13:36:29.431Z,23.20
2022-10-04T13:39:07.478Z,23.30
2022-10-04T13:41:43.059Z,23.00
2022-10-04T13:44:30.337Z,23.10
2022-10-04T13:47:06.502Z,23.10
2022-10-04T13:49:42.020Z,22.80
2022-10-04T13:52:34.712Z,22.90
2022-10-04T13:55:33.453Z,23.00
2022-10-04T13:58:11.925Z,23.50
2022-10-04T14:00:57.007Z,23.00
2022-10-04T14:03:30.801Z,23.10
2022-10-04T14:06:18.677Z,23.10
2022-10-04T14:09:01.134Z,22.90
2022-10-04T14:11:43.253Z,22.80
2022-10-04T14:14:29.122Z,22.50
2022-10-04T14:17:03.307Z,22.50
2022-10-04T14:19:44.007Z,22.30
2022-10-04T14:22:34.610Z,22.40
2022-10-04T14:25:26.562Z,22.80
2022-10-04T14:28:16.963Z,22.70
2022-10-04T14:30:57.497Z,22.90
2022-10-04T14:33:35.220Z,23.30
2022-10-04T14:36:19.785Z,23.40
2022-10-04T14:38:53.761Z,23.30
2022-10-04T14:41:33.773Z,23.40
2022-10-04T14:44:12.098Z,23.40
2022-10-04T14:46:45.944Z,23.60
2022-10-04T14:49:16.931Z,23.60
2022-10-04T14:51:50.145Z,23.70
2022-10-04T14:54:29.050Z,23.40
2022-10-04T14:57:00.631Z,23.50
2022-10-04T14:59:40.273Z,23.20
2022-10-04T15:02:13.539Z,23.30
2022-10-04T15:04:55.273Z,23.50
2022-10-04T15:07:24.519Z,23.50
2022-10-04T15:09:54.517Z,23.40
2022-10-04T15:12:51.874Z,23.20
2022-10-04T15:15:36.937Z,23.30
2022-10-04T15:18:11.743Z,23.30
2022-10-04T15:20:48.601Z,23.50
2022-10-04T15:23:16.836Z,23.10
2022-10-04T15:25:46.927Z,22.90
2022-10-04T15:28:26.909Z,22.90
2022-10-04T15:30:56.226Z,22.80
2022-10-04T15:33:32.931Z,22.70
2022-10-04T15:36:13.530Z,22.60
2022-10-04T15:38:46.984Z,22.80
2022-10-04T15:41:16.671Z,22.80
2022-10-04T15:43:44.281Z,22.70
2022-10-04T15:46:44.723Z,22.70
2022-10-04T15:49:36.958Z,22.60
2022-10-04T15:52:10.776Z,22.50
2022-10-04T15:54:44.437Z,22.50
2022-10-04T15:57:20.334Z,22.70
2022-10-04T15:59:53.455Z,22.80
2022-10-04T16:02:41.335Z,22.60
2022-10-04T16:05:17.189Z,22.20
2022-10-04T16:08:03.667Z,22.20
2022-10-04T16:10:48.170Z,22.20
2022-10-04T16:13:34.164Z,22.30
2022-10-04T16:16:33.807Z,22.20
2022-10-04T16:19:10.824Z,22.10
2022-10-04T16:33:42.560Z,22.00
2022-10-04T16:36:13.134Z,21.90
2022-10-04T16:39:06.998Z,21.80
2022-10-04T16:41:36.771Z,21.80
2022-10-04T16:44:06.993Z,21.80
2022-10-04T16:46:37.654Z,21.90
2022-10-04T16:49:18.801Z,22.00
2022-10-04T16:51:58.100Z,21.80
2022-10-04T16:54:34.364Z,21.70
2022-10-04T16:57:28.589Z,21.50
2022-10-04T16:59:56.458Z,21.70
2022-10-04T17:02:33.761Z,21.60
2022-10-04T17:05:14.915Z,21.50
2022-10-04T17:07:51.526Z,21.60
2022-10-04T17:10:21.132Z,21.40
2022-10-04T17:12:51.400Z,21.40
2022-10-04T17:15:31.470Z,21.40
2022-10-04T17:18:04.950Z,21.50
2022-10-04T17:20:45.545Z,21.30
2022-10-04T17:23:20.634Z,21.30
2022-10-04T17:25:52.233Z,21.40
2022-10-04T17:28:26.093Z,21.40
2022-10-04T17:30:55.437Z,21.50
2022-10-04T17:33:27.472Z,21.40
2022-10-04T17:36:00.681Z,21.30
2022-10-04T17:38:30.835Z,21.20
2022-10-04T17:41:00.571Z,21.30
2022-10-04T17:43:31.877Z,21.30
2022-10-04T17:46:08.622Z,21.20
2022-10-04T17:49:00.718Z,21.10
2022-10-04T17:52:04.419Z,20.90
2022-10-04T17:54:59.591Z,20.90
2022-10-04T17:57:31.029Z,20.70
2022-10-04T18:00:05.889Z,20.80
2022-10-04T18:02:45.594Z,20.80
2022-10-04T18:05:17.860Z,20.50
2022-10-04T18:07:48.242Z,20.60
2022-10-04T18:10:22.369Z,20.50
2022-10-04T18:12:55.937Z,20.60
2022-10-04T18:15:26.675Z,20.80
2022-10-04T18:18:06.651Z,20.80
2022-10-04T18:20:35.195Z,20.80
2022-10-04T18:23:12.448Z,20.60
2022-10-04T18:25:41.325Z,20.80
2022-10-04T18:28:13.561Z,20.80
2022-10-04T18:30:54.149Z,21.10
2022-10-04T18:33:26.077Z,21.00
2022-10-04T18:36:00.124Z,21.10
2022-10-04T18:38:28.415Z,21.20
2022-10-04T18:40:58.547Z,21.10
2022-10-04T18:43:30.406Z,21.00
2022-10-04T18:46:01.422Z,21.00
2022-10-04T18:48:36.863Z,20.90
2022-10-04T18:51:20.975Z,20.80
2022-10-04T18:53:50.406Z,20.90
2022-10-04T18:56:19.191Z,20.90
2022-10-04T18:59:09.769Z,20.90
2022-10-04T19:02:03.917Z,21.00
2022-10-04T19:04:38.068Z,20.80
2022-10-04T19:07:09.293Z,20.90
2022-10-04T19:09:44.428Z,21.00
2022-10-04T19:12:15.865Z,20.90
2022-10-04T19:14:45.958Z,20.80
2022-10-04T19:17:19.014Z,20.70
2022-10-04T19:19:51.717Z,20.70
2022-10-04T19:22:22.216Z,20.60
2022-10-04T19:24:58.721Z,20.30
2022-10-04T19:27:29.253Z,20.60
2022-10-04T19:30:14.064Z,20.70
2022-10-04T19:32:57.419Z,20.60
2022-10-04T19:35:35.003Z,20.60
2022-10-04T19:38:05.639Z,20.50
2022-10-04T19:40:37.353Z,20.30
2022-10-04T19:43:08.612Z,20.30
2022-10-04T19:45:43.076Z,20.10
2022-10-04T19:48:13.638Z,20.10
2022-10-04T19:50:42.540Z,20.30
2022-10-04T19:53:14.260Z,20.40
2022-10-04T19:55:44.828Z,20.40
2022-10-04T20:01:12.558Z,20.10
2022-10-04T20:03:40.252Z,20.00
2022-10-04T20:06:07.571Z,20.10
2022-10-04T20:08:51.957Z,20.00
2022-10-04T20:11:20.308Z,20.00
2022-10-04T20:13:52.748Z,19.80
2022-10-04T20:16:54.131Z,19.90
2022-10-04T20:19:36.673Z,19.90
2022-10-04T20:22:18.549Z,20.00
2022-10-04T20:24:49.896Z,20.00
2022-10-04T20:27:36.239Z,20.20
2022-10-04T20:30:04.881Z,20.20
2022-10-04T20:32:50.441Z,20.40
2022-10-04T20:35:32.264Z,20.40
2022-10-04T20:38:31.623Z,20.40
2022-10-04T20:40:59.225Z,20.30
2022-10-04T20:43:26.663Z,20.30
2022-10-04T20:45:55.439Z,20.10
2022-10-04T20:48:23.198Z,20.20
2022-10-04T20:50:50.764Z,20.30
2022-10-04T20:53:20.658Z,20.20
2022-10-04T20:55:48.270Z,20.10
2022-10-04T20:58:24.583Z,20.10
2022-10-04T21:00:52.538Z,19.80
2022-10-04T21:03:19.678Z,19.90
2022-10-04T21:05:58.441Z,20.00
2022-10-04T21:08:27.883Z,20.10
2022-10-04T21:11:05.390Z,20.20
2022-10-04T21:13:41.589Z,19.90
2022-10-04T21:16:08.710Z,20.00
2022-10-04T21:18:35.578Z,19.80
2022-10-04T21:21:02.726Z,19.70
2022-10-04T21:23:33.437Z,19.90
2022-10-04T21:26:23.084Z,19.90
2022-10-04T21:28:52.684Z,19.80
2022-10-04T21:31:19.623Z,20.10
2022-10-04T21:33:46.603Z,20.00
2022-10-04T21:36:13.542Z,20.20
2022-10-04T21:38:41.769Z,20.30
2022-10-04T21:41:09.201Z,20.00
2022-10-04T21:43:36.278Z,19.80
2022-10-04T21:46:03.239Z,19.70
2022-10-04T21:48:30.151Z,19.60
2022-10-04T21:50:57.312Z,19.40
2022-10-04T21:53:24.203Z,19.60
2022-10-04T21:55:52.573Z,19.70
2022-10-04T21:58:19.428Z,19.80
2022-10-04T22:00:46.604Z,19.90
2022-10-04T22:03:13.452Z,20.00
2022-10-04T22:05:40.618Z,20.10
2022-10-04T22:08:07.515Z,20.00
2022-10-04T22:10:34.521Z,20.10
2022-10-04T22:13:02.701Z,20.10
2022-10-04T22:15:29.565Z,20.00
2022-10-04T22:17:56.883Z,20.10
2022-10-04T22:20:24.456Z,20.10
2022-10-04T22:22:51.428Z,20.20
2022-10-04T22:25:20.272Z,20.00
2022-10-04T22:27:47.634Z,20.10
2022-10-04T22:30:29.931Z,20.00
2022-10-04T22:32:59.034Z,19.90
2022-10-04T22:35:28.861Z,19.90
2022-10-04T22:37:55.814Z,20.00
2022-10-04T22:40:23.696Z,20.20
2022-10-04T22:42:51.755Z,20.10
2022-10-04T22:45:21.607Z,20.20
2022-10-04T22:47:48.750Z,20.20
2022-10-04T22:50:26.221Z,20.00
2022-10-04T22:52:53.147Z,19.90
2022-10-04T22:55:20.399Z,20.00
2022-10-04T22:57:47.364Z,19.90
2022-10-04T23:00:14.244Z,19.90
2022-10-04T23:02:41.368Z,19.90
2022-10-04T23:05:11.706Z,20.00
2022-10-04T23:07:39.960Z,20.00
2022-10-04T23:10:07.453Z,20.00
2022-10-04T23:12:34.269Z,20.00
2022-10-04T23:15:01.409Z,20.00
2022-10-04T23:17:29.275Z,19.60
2022-10-04T23:19:56.862Z,19.80
2022-10-04T23:22:26.778Z,19.90
2022-10-04T23:24:55.600Z,20.00
2022-10-04T23:27:23.098Z,19.90
2022-10-04T23:29:53.741Z,19.90
2022-10-04T23:32:20.919Z,19.90
2022-10-04T23:34:52.966Z,19.70
2022-10-04T23:37:25.592Z,19.80
2022-10-04T23:39:52.394Z,19.90
2022-10-04T23:42:21.452Z,19.80
2022-10-04T23:44:49.643Z,19.80
2022-10-04T23:47:17.806Z,19.90
2022-10-04T23:49:45.609Z,20.00
2022-10-04T23:52:16.359Z,19.70
2022-10-04T23:54:43.259Z,19.70
2022-10-04T23:57:11.051Z,19.80
2022-10-04T23:59:39.819Z,19.90
